Time;durP1;ratioP1;P1;durP2;ratioP2;P2;SDS_P1;SDS_P2;PMS_P1;PMS_P2;Temp;Humidity;BMP_temperature;BMP_pressure;BME280_temperature;BME280_humidity;BME280_pressure;Samples;Min_cycle;Max_cycle;Signal;HPM_P1;HPM_P2
2023/12/01 00:01:51;;;;;;;2.15;0.80;;;0.10;99.90;;;;;;5008195;28;20071;-71
2023/12/01 00:04:17;;;;;;;0.10;0.10;;;0.00;99.90;;;;;;5024691;28;20116;-73
2023/12/01 00:06:42;;;;;;;1.63;0.50;;;0.00;99.90;;;;;;5004026;28;20033;-72
2023/12/01 00:09:08;;;;;;;0.20;0.20;;;-0.10;99.90;;;;;;5037197;28;20033;-73
2023/12/01 00:11:33;;;;;;;0.77;0.73;;;-0.10;99.90;;;;;;5042208;28;20041;-72
2023/12/01 00:13:59;;;;;;;0.35;0.35;;;-0.10;99.90;;;;;;5007566;28;20049;-72
2023/12/01 00:16:25;;;;;;;1.05;0.50;;;-0.10;99.90;;;;;;5021281;28;20033;-73
2023/12/01 00:18:50;;;;;;;0.43;0.43;;;-0.10;99.90;;;;;;5012182;28;20030;-73
2023/12/01 00:21:16;;;;;;;0.38;0.20;;;-0.20;99.90;;;;;;5020637;28;21160;-72
2023/12/01 00:23:42;;;;;;;1.20;1.08;;;-0.20;99.90;;;;;;5010108;28;20047;-72
2023/12/01 00:26:07;;;;;;;2.72;1.10;;;-0.20;99.90;;;;;;5019124;28;20464;-72
2023/12/01 00:28:33;;;;;;;2.03;0.40;;;-0.20;99.90;;;;;;5014653;28;20037;-72
2023/12/01 00:30:58;;;;;;;0.93;0.93;;;-0.30;99.90;;;;;;5023338;28;20026;-72
2023/12/01 00:33:25;;;;;;;1.02;1.02;;;-0.30;99.90;;;;;;5006632;28;20496;-72
2023/12/01 00:35:51;;;;;;;0.50;0.47;;;-0.20;99.90;;;;;;5020129;28;20033;-72
2023/12/01 00:38:17;;;;;;;0.43;0.43;;;-0.20;99.90;;;;;;5006972;28;20049;-72
2023/12/01 00:40:42;;;;;;;0.22;0.22;;;-0.20;99.90;;;;;;5015439;28;20183;-72
2023/12/01 00:43:09;;;;;;;0.10;0.10;;;-0.20;99.90;;;;;;5008831;28;20038;-72
2023/12/01 00:45:35;;;;;;;2.25;1.02;;;-0.20;99.90;;;;;;5018975;28;20049;-72
2023/12/01 00:48:01;;;;;;;0.40;0.35;;;-0.30;99.90;;;;;;5003315;28;20381;-72
2023/12/01 00:50:26;;;;;;;0.75;0.63;;;-0.30;99.90;;;;;;5024692;28;20033;-72
2023/12/01 00:52:53;;;;;;;0.68;0.68;;;-0.30;99.90;;;;;;5023559;28;20094;-71
2023/12/01 00:55:19;;;;;;;0.60;0.57;;;-0.30;99.90;;;;;;5009627;28;20064;-73
2023/12/01 00:57:45;;;;;;;0.25;0.25;;;-0.30;99.90;;;;;;5022613;28;20051;-72
2023/12/01 01:00:11;;;;;;;1.95;0.65;;;-0.30;99.90;;;;;;5005539;28;20465;-72
2023/12/01 01:02:37;;;;;;;7.28;1.85;;;-0.30;99.90;;;;;;5022741;28;20048;-72
2023/12/01 01:05:03;;;;;;;2.38;1.15;;;-0.40;99.90;;;;;;5012139;28;20037;-72
2023/12/01 01:07:29;;;;;;;0.20;0.20;;;-0.40;99.90;;;;;;5021746;28;20033;-73
2023/12/01 01:09:54;;;;;;;0.30;0.30;;;-0.40;99.90;;;;;;5003097;28;20040;-72
2023/12/01 01:12:21;;;;;;;0.10;0.10;;;-0.30;99.90;;;;;;5019288;28;20033;-72
2023/12/01 01:14:46;;;;;;;0.88;0.77;;;-0.30;99.90;;;;;;5001506;28;20039;-73
2023/12/01 01:17:12;;;;;;;0.08;0.08;;;-0.30;99.90;;;;;;5006177;28;20029;-73
2023/12/01 01:19:38;;;;;;;0.10;0.10;;;-0.30;99.90;;;;;;5007896;28;20172;-72
2023/12/01 01:22:03;;;;;;;0.50;0.50;;;-0.30;99.90;;;;;;5019403;28;20038;-73
2023/12/01 01:24:29;;;;;;;0.10;0.10;;;-0.40;99.90;;;;;;5011430;28;20041;-73
2023/12/01 01:26:55;;;;;;;3.65;1.63;;;-0.40;99.90;;;;;;5019226;28;20078;-73
2023/12/01 01:29:20;;;;;;;1.75;1.65;;;-0.40;99.90;;;;;;5008416;28;20029;-72
2023/12/01 01:31:46;;;;;;;0.13;0.13;;;-0.40;99.90;;;;;;5020827;28;20120;-72
2023/12/01 01:34:11;;;;;;;0.28;0.28;;;-0.40;99.90;;;;;;5018625;28;20051;-73
2023/12/01 01:36:37;;;;;;;1.85;1.25;;;-0.50;99.90;;;;;;5014465;28;20038;-73
2023/12/01 01:39:03;;;;;;;0.10;0.10;;;-0.60;99.90;;;;;;5020806;28;20029;-73
2023/12/01 01:41:28;;;;;;;1.17;1.08;;;-0.60;99.90;;;;;;5001562;28;20500;-72
2023/12/01 01:43:54;;;;;;;0.65;0.40;;;-0.70;99.90;;;;;;5020771;28;20091;-72
2023/12/01 01:46:20;;;;;;;0.60;0.50;;;-0.70;99.90;;;;;;5004588;28;20034;-72
2023/12/01 01:48:46;;;;;;;0.85;0.85;;;-0.70;99.90;;;;;;5017258;28;20591;-73
2023/12/01 01:51:14;;;;;;;1.23;1.15;;;-0.70;99.90;;;;;;5009897;28;20045;-72
2023/12/01 01:53:41;;;;;;;2.35;1.90;;;-0.70;99.90;;;;;;5020667;28;20064;-72
2023/12/01 01:56:12;;;;;;;0.20;0.15;;;-0.80;99.90;;;;;;5005007;28;20057;-72
2023/12/01 01:58:37;;;;;;;1.65;1.55;;;-0.80;99.90;;;;;;5022451;28;20045;-73
2023/12/01 02:01:03;;;;;;;0.75;0.75;;;-0.80;99.90;;;;;;5001209;28;20216;-72
2023/12/01 02:03:29;;;;;;;2.60;1.65;;;-0.80;99.90;;;;;;5021253;28;20330;-71
2023/12/01 02:05:54;;;;;;;1.33;1.23;;;-0.80;99.90;;;;;;5006228;28;21265;-72
2023/12/01 02:08:24;;;;;;;0.95;0.52;;;-0.80;99.90;;;;;;5016868;28;20041;-72
2023/12/01 02:10:51;;;;;;;6.22;1.00;;;-0.80;99.90;;;;;;5008915;28;20039;-72
2023/12/01 02:13:17;;;;;;;0.52;0.52;;;-0.80;99.90;;;;;;5020104;28;20022;-71
2023/12/01 02:15:43;;;;;;;2.45;0.75;;;-0.90;99.90;;;;;;5011356;28;20371;-71
2023/12/01 02:18:26;;;;;;;0.77;0.77;;;-0.90;99.90;;;;;;5009112;28;20497;-72
2023/12/01 02:20:54;;;;;;;0.47;0.47;;;-0.90;99.90;;;;;;5011321;28;20115;-72
2023/12/01 02:23:20;;;;;;;0.50;0.50;;;-0.90;99.90;;;;;;5016205;28;20491;-74
2023/12/01 02:25:47;;;;;;;0.35;0.35;;;-0.90;99.90;;;;;;5021079;28;20025;-72
2023/12/01 02:28:13;;;;;;;0.73;0.73;;;-0.90;99.90;;;;;;5005687;28;20037;-73
2023/12/01 02:30:41;;;;;;;1.67;1.58;;;-0.90;99.90;;;;;;5021530;28;20091;-73
2023/12/01 02:33:07;;;;;;;0.70;0.65;;;-1.00;99.90;;;;;;5006795;28;20864;-72
2023/12/01 02:35:32;;;;;;;1.83;0.63;;;-1.00;99.90;;;;;;5015716;28;20049;-72
2023/12/01 02:37:59;;;;;;;1.25;0.68;;;-1.00;99.90;;;;;;5004356;28;20034;-72
2023/12/01 02:40:27;;;;;;;0.40;0.40;;;-1.00;99.90;;;;;;5018482;28;20106;-72
2023/12/01 02:42:53;;;;;;;0.00;0.00;;;-1.00;99.90;;;;;;5010606;28;20083;-72
2023/12/01 02:45:20;;;;;;;0.43;0.43;;;-1.00;99.90;;;;;;5022805;28;20079;-72
2023/12/01 02:47:49;;;;;;;0.95;0.40;;;-1.00;99.90;;;;;;5002896;28;20044;-72
2023/12/01 02:50:15;;;;;;;0.30;0.30;;;-1.00;99.90;;;;;;5019782;28;20490;-72
2023/12/01 02:52:41;;;;;;;3.63;0.68;;;-1.00;99.90;;;;;;5031143;28;20033;-72
2023/12/01 02:55:08;;;;;;;0.17;0.17;;;-1.00;99.90;;;;;;5030100;28;20045;-72
2023/12/01 02:57:35;;;;;;;0.20;0.20;;;-1.00;99.90;;;;;;5009844;28;20088;-72
2023/12/01 03:00:01;;;;;;;0.98;0.98;;;-1.10;99.90;;;;;;5021117;28;20128;-72
2023/12/01 03:02:28;;;;;;;3.10;1.50;;;-1.00;99.90;;;;;;5004187;28;20030;-72
2023/12/01 03:04:54;;;;;;;0.47;0.47;;;-1.10;99.90;;;;;;5018246;28;20041;-72
2023/12/01 03:07:20;;;;;;;0.68;0.68;;;-1.10;99.90;;;;;;5016977;28;20108;-72
2023/12/01 03:09:46;;;;;;;1.58;0.52;;;-1.10;99.90;;;;;;5003244;28;20742;-73
2023/12/01 03:12:11;;;;;;;1.50;0.82;;;-1.10;99.90;;;;;;5018903;28;20492;-72
2023/12/01 03:14:37;;;;;;;0.57;0.57;;;-1.10;99.90;;;;;;5014982;28;20057;-73
2023/12/01 03:17:03;;;;;;;0.45;0.45;;;-1.00;99.90;;;;;;5027759;28;20145;-72
2023/12/01 03:19:29;;;;;;;1.38;1.27;;;-1.10;99.90;;;;;;5013013;28;20054;-72
2023/12/01 03:21:55;;;;;;;0.47;0.47;;;-1.00;99.90;;;;;;5020181;28;20060;-73
2023/12/01 03:24:20;;;;;;;0.47;0.43;;;-1.00;99.90;;;;;;5011700;28;20033;-72
2023/12/01 03:26:46;;;;;;;1.13;1.13;;;-1.10;99.90;;;;;;5018673;28;20040;-73
2023/12/01 03:29:11;;;;;;;0.55;0.55;;;-1.10;99.90;;;;;;5011751;28;20076;-73
2023/12/01 03:31:37;;;;;;;0.57;0.57;;;-1.10;99.90;;;;;;5024893;28;20048;-73
2023/12/01 03:34:05;;;;;;;0.43;0.43;;;-1.10;99.90;;;;;;5012820;28;20029;-71
2023/12/01 03:36:30;;;;;;;1.30;1.30;;;-1.10;99.90;;;;;;5022949;28;21069;-72
2023/12/01 03:38:56;;;;;;;4.72;2.47;;;-1.10;99.90;;;;;;5014023;28;20610;-72
2023/12/01 03:41:22;;;;;;;1.55;1.23;;;-1.20;99.90;;;;;;5018634;28;20408;-72
2023/12/01 03:43:48;;;;;;;0.75;0.75;;;-1.10;99.90;;;;;;5013400;28;20038;-73
2023/12/01 03:46:13;;;;;;;2.53;1.00;;;-1.20;99.90;;;;;;5025873;28;20029;-73
2023/12/01 03:48:39;;;;;;;0.30;0.30;;;-1.20;99.90;;;;;;5016634;28;20952;-72
2023/12/01 03:51:05;;;;;;;0.93;0.93;;;-1.20;99.90;;;;;;5012506;28;20033;-72
2023/12/01 03:53:31;;;;;;;0.20;0.20;;;-1.20;99.90;;;;;;5025463;28;20505;-72
2023/12/01 03:55:58;;;;;;;2.63;0.70;;;-1.20;99.90;;;;;;5012612;28;20035;-74
2023/12/01 03:58:24;;;;;;;0.43;0.43;;;-1.20;99.90;;;;;;5024556;28;20031;-73
2023/12/01 04:00:52;;;;;;;0.77;0.57;;;-1.10;99.90;;;;;;5007611;28;20033;-73
2023/12/01 04:03:18;;;;;;;0.63;0.63;;;-1.10;99.90;;;;;;5023905;28;20040;-73
2023/12/01 04:05:44;;;;;;;1.90;1.80;;;-1.10;99.90;;;;;;5013499;28;21113;-72
2023/12/01 04:08:09;;;;;;;0.47;0.45;;;-1.20;99.90;;;;;;5021638;28;20356;-73
2023/12/01 04:10:36;;;;;;;1.65;1.20;;;-1.20;99.90;;;;;;5012973;28;20042;-72
2023/12/01 04:13:07;;;;;;;2.20;0.85;;;-1.10;99.90;;;;;;5025213;28;20034;-72
2023/12/01 04:15:34;;;;;;;0.85;0.40;;;-1.20;99.90;;;;;;5008338;28;20033;-72
2023/12/01 04:18:07;;;;;;;1.27;1.17;;;-1.20;99.90;;;;;;5020233;28;20550;-71
2023/12/01 04:20:38;;;;;;;0.93;0.47;;;-1.20;99.90;;;;;;5007045;28;20051;-73
2023/12/01 04:23:14;;;;;;;0.13;0.13;;;-1.30;99.90;;;;;;5021012;28;20082;-72
2023/12/01 04:25:45;;;;;;;4.47;1.33;;;-1.30;99.90;;;;;;5011851;28;20033;-73
2023/12/01 04:28:10;;;;;;;2.22;2.03;;;-1.30;99.90;;;;;;5018344;28;20104;-73
2023/12/01 04:30:36;;;;;;;0.70;0.70;;;-1.40;99.90;;;;;;5008202;28;20501;-74
2023/12/01 04:33:02;;;;;;;0.55;0.55;;;-1.40;99.90;;;;;;5024642;28;20033;-73
2023/12/01 04:35:29;;;;;;;1.38;1.27;;;-1.40;99.90;;;;;;5005419;28;20038;-71
2023/12/01 04:37:56;;;;;;;1.13;0.77;;;-1.40;99.90;;;;;;5024103;28;20041;-72
2023/12/01 04:40:22;;;;;;;1.38;1.17;;;-1.40;99.90;;;;;;5023045;28;20116;-72
2023/12/01 04:42:49;;;;;;;0.38;0.38;;;-1.30;99.90;;;;;;5006745;28;20063;-72
2023/12/01 04:45:18;;;;;;;0.22;0.22;;;-1.30;99.90;;;;;;5020112;28;20030;-72
2023/12/01 04:47:45;;;;;;;0.15;0.15;;;-1.20;99.90;;;;;;5007272;28;20037;-72
2023/12/01 04:50:13;;;;;;;0.32;0.32;;;-1.20;99.90;;;;;;5020784;28;20037;-73
2023/12/01 04:52:44;;;;;;;3.13;1.02;;;-1.30;99.90;;;;;;5012987;28;20560;-73
2023/12/01 04:55:12;;;;;;;1.42;1.30;;;-1.20;99.90;;;;;;5019524;28;20038;-73
2023/12/01 04:57:38;;;;;;;0.50;0.50;;;-1.20;99.90;;;;;;5011644;28;20398;-73
2023/12/01 05:00:19;;;;;;;0.55;0.55;;;-1.20;99.90;;;;;;5021691;28;20067;-73
2023/12/01 05:02:51;;;;;;;0.68;0.68;;;-1.30;99.90;;;;;;5009538;28;21207;-71
2023/12/01 05:05:18;;;;;;;0.55;0.55;;;-1.30;99.90;;;;;;5008855;28;20543;-72
2023/12/01 05:07:45;;;;;;;0.93;0.70;;;-1.30;99.90;;;;;;5007769;28;20038;-72
2023/12/01 05:10:19;;;;;;;0.32;0.32;;;-1.30;99.90;;;;;;5027277;28;20037;-73
2023/12/01 05:12:49;;;;;;;0.82;0.82;;;-1.40;99.90;;;;;;5010620;28;20048;-72
2023/12/01 05:15:15;;;;;;;0.10;0.10;;;-1.30;99.90;;;;;;5002893;28;20095;-72
2023/12/01 05:17:44;;;;;;;1.13;1.13;;;-1.30;99.90;;;;;;5006037;28;20029;-72
2023/12/01 05:20:15;;;;;;;1.02;1.02;;;-1.30;99.90;;;;;;5018812;28;20144;-73
2023/12/01 05:22:44;;;;;;;1.00;0.80;;;-1.30;99.90;;;;;;5007564;28;20041;-72
2023/12/01 05:25:16;;;;;;;0.98;0.90;;;-1.40;99.90;;;;;;5023052;28;20041;-72
2023/12/01 05:27:47;;;;;;;0.85;0.80;;;-1.40;99.90;;;;;;5009808;28;20037;-73
2023/12/01 05:30:14;;;;;;;7.07;2.95;;;-1.30;99.90;;;;;;5020055;28;20029;-72
2023/12/01 05:32:43;;;;;;;0.95;0.95;;;-1.30;99.90;;;;;;5010055;28;20039;-72
2023/12/01 05:35:12;;;;;;;1.20;0.57;;;-1.20;99.90;;;;;;5017793;28;20481;-73
2023/12/01 05:37:46;;;;;;;1.10;0.85;;;-1.20;99.90;;;;;;5009783;28;20033;-74
2023/12/01 05:40:14;;;;;;;1.80;1.35;;;-1.20;99.90;;;;;;5024723;28;20100;-73
2023/12/01 05:42:42;;;;;;;0.15;0.15;;;-1.20;99.90;;;;;;5005410;28;21035;-73
2023/12/01 05:45:11;;;;;;;2.72;1.13;;;-1.30;99.90;;;;;;5020694;28;20033;-72
2023/12/01 05:47:42;;;;;;;1.15;1.05;;;-1.30;99.90;;;;;;5018797;28;20059;-72
2023/12/01 05:50:13;;;;;;;1.90;1.73;;;-1.30;99.90;;;;;;5032225;28;20033;-72
2023/12/01 05:52:41;;;;;;;0.13;0.13;;;-1.30;99.90;;;;;;5054792;28;20029;-73
2023/12/01 05:55:14;;;;;;;1.83;0.75;;;-1.30;99.90;;;;;;5010166;28;20051;-72
2023/12/01 05:57:44;;;;;;;1.60;1.25;;;-1.30;99.90;;;;;;5025115;28;20035;-73
2023/12/01 06:00:12;;;;;;;;;;;-1.30;99.90;;;;;;5010318;28;20033;-72
2023/12/01 06:02:40;;;;;;;0.93;0.85;;;-1.30;99.90;;;;;;5017185;28;19913;-72
2023/12/01 06:05:06;;;;;;;0.20;0.20;;;-1.30;99.90;;;;;;5010179;28;20068;-72
2023/12/01 06:07:32;;;;;;;0.20;0.20;;;-1.30;99.90;;;;;;5021881;28;20029;-72
2023/12/01 06:09:58;;;;;;;0.80;0.57;;;-1.30;99.90;;;;;;5007951;28;20330;-72
2023/12/01 06:12:24;;;;;;;2.25;1.35;;;-1.30;99.90;;;;;;5021113;28;20079;-73
2023/12/01 06:14:50;;;;;;;0.32;0.32;;;-1.20;99.90;;;;;;5007111;28;20037;-73
2023/12/01 06:17:15;;;;;;;1.30;1.20;;;-1.10;99.90;;;;;;5016049;28;20022;-73
2023/12/01 06:19:41;;;;;;;0.88;0.88;;;-1.10;99.90;;;;;;4998194;28;20140;-73
2023/12/01 06:22:09;;;;;;;0.17;0.17;;;-1.00;99.90;;;;;;5017419;28;20025;-73
2023/12/01 06:24:34;;;;;;;0.50;0.47;;;-1.00;99.90;;;;;;5010904;28;20516;-73
2023/12/01 06:27:04;;;;;;;18.95;1.08;;;-1.00;99.90;;;;;;5020709;28;20037;-72
2023/12/01 06:29:30;;;;;;;1.50;1.25;;;-1.10;99.90;;;;;;4990246;28;20033;-72
2023/12/01 06:31:56;;;;;;;0.98;0.38;;;-1.10;99.90;;;;;;5020460;28;20545;-73
2023/12/01 06:34:22;;;;;;;1.70;1.60;;;-1.10;99.90;;;;;;5011238;28;20037;-72
2023/12/01 06:36:47;;;;;;;1.70;1.60;;;-1.20;99.90;;;;;;5020406;28;20535;-72
2023/12/01 06:39:13;;;;;;;1.27;1.17;;;-1.20;99.90;;;;;;5016880;28;20359;-72
2023/12/01 06:41:41;;;;;;;2.13;1.95;;;-1.30;99.90;;;;;;5007399;28;20026;-72
2023/12/01 06:44:07;;;;;;;5.57;2.05;;;-1.30;99.90;;;;;;5019917;28;20044;-72
2023/12/01 06:46:33;;;;;;;1.77;1.15;;;-1.30;99.90;;;;;;5004861;28;20456;-72
2023/12/01 06:48:59;;;;;;;7.13;2.90;;;-1.30;99.90;;;;;;5017903;28;20029;-72
2023/12/01 06:51:25;;;;;;;0.70;0.70;;;-1.30;99.90;;;;;;5006728;28;20021;-73
2023/12/01 06:53:51;;;;;;;2.05;0.52;;;-1.30;99.90;;;;;;5021355;28;21125;-73
2023/12/01 06:56:16;;;;;;;3.50;0.73;;;-1.40;99.90;;;;;;5006824;28;20033;-72
2023/12/01 06:58:42;;;;;;;1.65;1.55;;;-1.40;99.90;;;;;;5020872;28;20030;-72
2023/12/01 07:01:08;;;;;;;4.45;2.17;;;-1.40;99.90;;;;;;5002537;28;20797;-71
2023/12/01 07:03:33;;;;;;;1.13;1.13;;;-1.30;99.90;;;;;;5016811;28;20047;-72
2023/12/01 07:05:59;;;;;;;0.60;0.60;;;-1.40;99.90;;;;;;5012688;28;20087;-72
2023/12/01 07:08:25;;;;;;;1.48;1.20;;;-1.40;99.90;;;;;;5022819;28;20583;-73
2023/12/01 07:10:51;;;;;;;1.63;1.52;;;-1.40;99.90;;;;;;5011105;28;20101;-72
2023/12/01 07:13:17;;;;;;;3.38;1.45;;;-1.40;99.90;;;;;;5031767;28;21081;-71
2023/12/01 07:15:43;;;;;;;1.38;1.08;;;-1.40;99.90;;;;;;5005200;28;20038;-72
2023/12/01 07:18:09;;;;;;;0.80;0.43;;;-1.50;99.90;;;;;;5023118;28;20057;-72
2023/12/01 07:20:35;;;;;;;1.45;1.05;;;-1.50;99.90;;;;;;5018969;28;20422;-72
2023/12/01 07:23:01;;;;;;;3.20;1.70;;;-1.50;99.90;;;;;;5002825;28;20140;-72
2023/12/01 07:25:26;;;;;;;1.65;0.68;;;-1.40;99.90;;;;;;5021501;28;20474;-71
2023/12/01 07:27:58;;;;;;;1.95;0.77;;;-1.40;99.90;;;;;;5004647;28;20029;-72
2023/12/01 07:30:25;;;;;;;1.00;1.00;;;-1.40;99.90;;;;;;5015531;28;20426;-72
2023/12/01 07:32:52;;;;;;;2.20;1.80;;;-1.40;99.90;;;;;;5007373;28;20033;-72
2023/12/01 07:35:18;;;;;;;1.80;1.70;;;-1.30;99.90;;;;;;5016491;28;20038;-72
2023/12/01 07:37:45;;;;;;;2.60;2.00;;;-1.30;99.90;;;;;;5009371;28;20094;-72
2023/12/01 07:40:19;;;;;;;3.08;2.78;;;-1.30;99.90;;;;;;5018938;28;20032;-72
2023/12/01 07:42:45;;;;;;;5.55;2.97;;;-1.20;99.90;;;;;;5000778;28;20100;-71
2023/12/01 07:45:14;;;;;;;3.28;1.95;;;-1.20;99.90;;;;;;5019251;28;20033;-71
2023/12/01 07:47:40;;;;;;;2.20;2.03;;;-1.20;99.90;;;;;;5008626;28;20041;-72
2023/12/01 07:50:07;;;;;;;6.35;2.08;;;-1.10;99.90;;;;;;5013751;28;20337;-72
2023/12/01 07:52:33;;;;;;;0.85;0.85;;;-1.10;99.90;;;;;;5005927;28;20033;-72
2023/12/01 07:54:59;;;;;;;3.47;3.25;;;-1.10;99.90;;;;;;5017849;28;20072;-71
2023/12/01 07:57:24;;;;;;;3.20;2.92;;;-1.10;99.90;;;;;;5006027;28;20025;-72
2023/12/01 07:59:50;;;;;;;1.45;1.38;;;-1.10;99.90;;;;;;5024286;28;20037;-72
2023/12/01 08:02:16;;;;;;;3.00;1.58;;;-1.00;99.90;;;;;;5002877;28;21369;-72
2023/12/01 08:04:41;;;;;;;2.33;1.88;;;-1.00;99.90;;;;;;5017798;28;20136;-72
2023/12/01 08:07:07;;;;;;;1.85;1.70;;;-0.90;99.90;;;;;;5014112;28;20044;-72
2023/12/01 08:09:33;;;;;;;5.38;1.95;;;-0.80;99.90;;;;;;5001213;28;20037;-72
2023/12/01 08:11:59;;;;;;;1.88;1.70;;;-0.80;99.90;;;;;;5020964;28;20037;-72
2023/12/01 08:14:28;;;;;;;3.47;3.10;;;-0.80;99.90;;;;;;5011277;28;20544;-72
2023/12/01 08:16:53;;;;;;;3.28;2.22;;;-0.70;99.90;;;;;;5022563;28;20033;-72
2023/12/01 08:19:19;;;;;;;1.15;1.15;;;-0.70;99.90;;;;;;5022272;28;20064;-72
2023/12/01 08:21:45;;;;;;;0.82;0.82;;;-0.60;99.90;;;;;;5016140;28;20073;-72
2023/12/01 08:24:11;;;;;;;2.17;2.08;;;-0.60;99.90;;;;;;5000252;28;20029;-72
2023/12/01 08:26:37;;;;;;;2.10;1.40;;;-0.50;99.90;;;;;;5015767;28;20037;-73
2023/12/01 08:29:03;;;;;;;2.30;1.73;;;-0.40;99.90;;;;;;5001145;28;20033;-73
2023/12/01 08:31:30;;;;;;;4.90;2.75;;;-0.40;99.90;;;;;;5013761;28;20045;-74
2023/12/01 08:33:56;;;;;;;2.78;2.58;;;-0.30;99.90;;;;;;4996162;28;20038;-72
2023/12/01 08:36:22;;;;;;;1.65;1.55;;;-0.30;99.90;;;;;;5004163;28;20037;-73
2023/12/01 08:38:47;;;;;;;3.95;3.55;;;-0.20;99.90;;;;;;4997329;28;20040;-72
2023/12/01 08:41:13;;;;;;;1.75;1.65;;;-0.20;99.90;;;;;;5007118;28;20025;-72
2023/12/01 08:43:38;;;;;;;1.67;1.58;;;-0.10;99.90;;;;;;4998964;28;20329;-72
2023/12/01 08:46:04;;;;;;;3.10;2.83;;;0.00;99.90;;;;;;5012216;28;20390;-74
2023/12/01 08:48:30;;;;;;;1.65;1.52;;;0.00;99.90;;;;;;5011666;28;20029;-74
2023/12/01 08:50:56;;;;;;;3.40;3.17;;;0.10;99.90;;;;;;4993834;28;20025;-74
2023/12/01 08:53:23;;;;;;;2.00;1.40;;;0.10;99.90;;;;;;5018294;28;20034;-73
2023/12/01 08:55:49;;;;;;;3.65;2.03;;;0.20;99.90;;;;;;5004618;28;20056;-71
2023/12/01 08:58:16;;;;;;;3.88;2.72;;;0.20;99.90;;;;;;5017279;28;20037;-73
2023/12/01 09:00:42;;;;;;;2.25;0.85;;;0.30;99.90;;;;;;5004907;28;20621;-71
2023/12/01 09:03:07;;;;;;;1.73;1.63;;;0.40;99.90;;;;;;5011838;28;20029;-72
2023/12/01 09:05:33;;;;;;;6.07;3.03;;;0.40;99.90;;;;;;4999122;28;20591;-72
2023/12/01 09:08:01;;;;;;;4.90;2.00;;;0.50;99.90;;;;;;5011071;28;20221;-72
2023/12/01 09:10:28;;;;;;;2.00;1.25;;;0.60;99.90;;;;;;4995920;28;20346;-70
2023/12/01 09:12:53;;;;;;;4.20;2.33;;;0.60;99.90;;;;;;5025227;28;20038;-71
2023/12/01 09:15:19;;;;;;;2.35;2.20;;;0.70;99.90;;;;;;5018151;28;20047;-69
2023/12/01 09:17:44;;;;;;;3.63;3.30;;;0.70;99.90;;;;;;5010511;28;20038;-72
2023/12/01 09:20:11;;;;;;;3.10;1.92;;;0.80;99.90;;;;;;4995539;28;20045;-72
2023/12/01 09:22:37;;;;;;;3.20;1.40;;;0.90;99.90;;;;;;5005528;28;21003;-71
2023/12/01 09:25:04;;;;;;;5.95;2.70;;;0.90;99.90;;;;;;4998705;28;20049;-69
2023/12/01 09:27:29;;;;;;;2.97;1.75;;;1.00;99.90;;;;;;5006607;28;20497;-70
2023/12/01 09:29:55;;;;;;;3.80;2.13;;;1.10;99.90;;;;;;5007065;28;20049;-71
2023/12/01 09:32:21;;;;;;;2.33;2.17;;;1.10;99.90;;;;;;4996611;28;20037;-73
2023/12/01 09:34:47;;;;;;;3.17;2.53;;;1.20;99.90;;;;;;5003852;28;20096;-71
2023/12/01 09:37:13;;;;;;;1.45;1.42;;;1.30;99.90;;;;;;4990862;28;20244;-75
2023/12/01 09:39:41;;;;;;;2.83;2.63;;;1.40;99.90;;;;;;5010248;28;20041;-72
2023/12/01 09:42:08;;;;;;;4.07;2.03;;;1.50;99.90;;;;;;4997737;28;20935;-74
2023/12/01 09:44:34;;;;;;;3.15;2.67;;;1.50;99.90;;;;;;5006495;28;20115;-72
2023/12/01 09:47:00;;;;;;;4.80;2.15;;;1.60;99.90;;;;;;4999597;28;20033;-71
2023/12/01 09:49:32;;;;;;;4.10;3.10;;;1.70;99.90;;;;;;5006437;28;20038;-75
2023/12/01 09:51:58;;;;;;;3.75;2.42;;;1.70;99.90;;;;;;4996018;28;20123;-74
2023/12/01 09:54:23;;;;;;;4.50;2.45;;;1.70;99.90;;;;;;5014823;28;20502;-73
2023/12/01 09:56:51;;;;;;;4.40;3.95;;;1.70;99.90;;;;;;5003922;28;20025;-74
2023/12/01 09:59:19;;;;;;;2.15;2.05;;;1.70;99.90;;;;;;5021441;28;20044;-72
2023/12/01 10:01:47;;;;;;;5.53;1.75;;;1.60;99.90;;;;;;5006236;28;20105;-72
2023/12/01 10:04:12;;;;;;;3.45;2.22;;;1.50;99.90;;;;;;5016784;28;20092;-74
2023/12/01 10:06:41;;;;;;;4.93;2.58;;;1.50;99.90;;;;;;5002494;28;20037;-72
2023/12/01 10:09:10;;;;;;;3.10;2.85;;;1.50;99.90;;;;;;5011826;28;20544;-74
2023/12/01 10:11:36;;;;;;;3.65;2.92;;;1.50;99.90;;;;;;5001672;28;20041;-73
2023/12/01 10:14:07;;;;;;;3.85;3.38;;;1.50;99.90;;;;;;5008360;28;20037;-73
2023/12/01 10:16:35;;;;;;;8.25;3.92;;;1.40;99.90;;;;;;5002882;28;20038;-74
2023/12/01 10:19:04;;;;;;;3.80;2.45;;;1.40;99.90;;;;;;5014482;28;20587;-73
2023/12/01 10:21:47;;;;;;;2.22;1.05;;;1.60;99.90;;;;;;5011888;28;20037;-73
2023/12/01 10:24:16;;;;;;;3.28;3.05;;;1.70;99.90;;;;;;5003247;28;20548;-73
2023/12/01 10:26:43;;;;;;;1.83;1.73;;;1.70;99.90;;;;;;5016867;28;20053;-72
2023/12/01 10:29:29;;;;;;;17.75;2.67;;;1.70;99.90;;;;;;5003135;28;20048;-72
2023/12/01 10:31:57;;;;;;;2.63;2.42;;;1.80;99.90;;;;;;5020381;28;20097;-71
2023/12/01 10:34:23;;;;;;;6.80;2.95;;;1.80;99.90;;;;;;5008363;28;20067;-72
2023/12/01 10:36:52;;;;;;;3.20;1.92;;;1.90;99.90;;;;;;5014678;28;20552;-72
2023/12/01 10:39:20;;;;;;;1.42;1.13;;;1.90;99.90;;;;;;5003379;28;20722;-71
2023/12/01 10:41:47;;;;;;;3.40;3.03;;;2.10;99.90;;;;;;5017698;28;20069;-71
2023/12/01 10:44:18;;;;;;;6.95;2.92;;;2.10;99.90;;;;;;5002275;28;20650;-71
2023/12/01 10:46:46;;;;;;;10.02;1.55;;;2.20;99.90;;;;;;5015777;28;20033;-71
2023/12/01 10:49:15;;;;;;;4.25;3.70;;;2.20;99.90;;;;;;5001615;28;20037;-71
2023/12/01 10:51:41;;;;;;;3.40;2.23;;;2.20;99.90;;;;;;5009440;28;20808;-71
2023/12/01 10:54:10;;;;;;;2.80;2.28;;;2.20;99.90;;;;;;5006049;28;20029;-71
2023/12/01 10:56:46;;;;;;;4.70;3.88;;;2.30;99.90;;;;;;5006284;28;20132;-71
2023/12/01 10:59:18;;;;;;;8.68;3.60;;;2.30;99.90;;;;;;5005361;28;20076;-71
2023/12/01 11:01:48;;;;;;;7.47;3.47;;;2.40;99.90;;;;;;5016258;28;20048;-72
2023/12/01 11:04:18;;;;;;;;;;;2.40;99.90;;;;;;4998330;28;20049;-71
2023/12/01 11:07:14;;;;;;;0.95;0.95;;;2.40;99.90;;;;;;5016750;28;20622;-71
2023/12/01 11:10:13;;;;;;;3.42;3.10;;;2.70;99.90;;;;;;5002420;28;20038;-71
2023/12/01 11:12:46;;;;;;;5.47;3.53;;;3.00;99.90;;;;;;5010360;28;20041;-69
2023/12/01 11:15:18;;;;;;;3.22;2.25;;;3.00;99.90;;;;;;5005179;28;20052;-71
2023/12/01 11:17:44;;;;;;;4.32;2.72;;;3.20;99.90;;;;;;5009652;28;20056;-70
2023/12/01 11:20:30;;;;;;;5.45;3.00;;;3.40;99.90;;;;;;5001178;28;20053;-70
2023/12/01 11:23:15;;;;;;;6.60;2.55;;;3.40;99.90;;;;;;5013823;28;20111;-70
2023/12/01 11:25:42;;;;;;;3.72;1.95;;;3.40;99.90;;;;;;5006660;28;20075;-71
2023/12/01 11:28:46;;;;;;;3.03;2.80;;;3.20;99.90;;;;;;5018370;28;20037;-70
2023/12/01 11:31:14;;;;;;;3.30;2.95;;;3.00;99.90;;;;;;5003002;28;20025;-72
2023/12/01 11:33:45;;;;;;;4.35;2.78;;;2.90;99.90;;;;;;5014409;28;20276;-70
2023/12/01 11:36:35;;;;;;;3.45;1.33;;;2.90;99.90;;;;;;5000812;28;20064;-70
2023/12/01 11:41:40;;;;;;;3.95;3.08;;;2.90;99.90;;;;;;5011400;28;20057;-71
2023/12/01 11:44:09;;;;;;;3.30;2.75;;;2.90;99.90;;;;;;5015893;28;20560;-74
2023/12/01 11:46:38;;;;;;;2.17;1.90;;;3.00;99.90;;;;;;5004249;28;20033;-72
2023/12/01 11:49:04;;;;;;;6.72;2.22;;;3.10;99.90;;;;;;5018820;28;20673;-70
2023/12/01 11:51:31;;;;;;;2.70;2.50;;;3.00;99.90;;;;;;5007397;28;20134;-71
2023/12/01 11:54:00;;;;;;;3.28;1.83;;;3.00;99.90;;;;;;5021812;28;20485;-71
2023/12/01 11:56:26;;;;;;;2.55;1.20;;;3.10;99.90;;;;;;5008390;28;20098;-73
2023/12/01 11:58:53;;;;;;;3.63;2.63;;;3.30;99.90;;;;;;5019685;28;20037;-71
2023/12/01 12:01:19;;;;;;;1.33;1.25;;;3.40;99.90;;;;;;5011631;28;20037;-73
2023/12/01 12:03:53;;;;;;;5.82;2.95;;;3.40;99.90;;;;;;5016585;28;20035;-73
2023/12/01 12:06:21;;;;;;;5.47;3.78;;;3.30;99.90;;;;;;5008989;28;20079;-72
2023/12/01 12:08:48;;;;;;;4.75;3.05;;;3.30;99.90;;;;;;5018598;28;20034;-72
2023/12/01 12:11:14;;;;;;;15.27;6.90;;;3.40;99.90;;;;;;5005995;28;20034;-71
2023/12/01 12:13:40;;;;;;;4.13;3.40;;;3.50;99.90;;;;;;5017683;28;20056;-72
2023/12/01 12:16:06;;;;;;;15.55;5.45;;;3.50;99.90;;;;;;5001609;28;20127;-72
2023/12/01 12:18:32;;;;;;;10.45;3.45;;;3.40;99.90;;;;;;5017830;28;20056;-72
2023/12/01 12:21:02;;;;;;;15.23;9.60;;;3.40;99.90;;;;;;5007749;28;20195;-72
2023/12/01 12:23:29;;;;;;;7.82;4.85;;;3.50;99.90;;;;;;5017293;28;20022;-73
2023/12/01 12:26:11;;;;;;;25.73;11.25;;;3.60;99.90;;;;;;5015278;28;20536;-74
2023/12/01 12:28:37;;;;;;;17.67;7.95;;;3.50;99.90;;;;;;5014708;28;20549;-72
2023/12/01 12:31:05;;;;;;;6.38;5.78;;;3.60;99.90;;;;;;5008179;28;20044;-72
2023/12/01 12:33:30;;;;;;;20.23;12.40;;;3.60;99.90;;;;;;5010597;28;20029;-72
2023/12/01 12:35:56;;;;;;;25.17;9.73;;;3.80;99.90;;;;;;5010078;28;20674;-72
2023/12/01 12:38:22;;;;;;;11.60;6.88;;;3.80;99.90;;;;;;5002274;28;20671;-71
2023/12/01 12:40:47;;;;;;;3.15;2.83;;;3.60;99.90;;;;;;5019113;28;20747;-73
2023/12/01 12:43:13;;;;;;;3.38;2.08;;;3.60;99.90;;;;;;5006972;28;20547;-73
2023/12/01 12:45:38;;;;;;;15.65;6.07;;;3.60;99.90;;;;;;5015783;28;20041;-73
2023/12/01 12:48:11;;;;;;;11.82;5.03;;;3.60;99.90;;;;;;5009419;28;20059;-72
2023/12/01 12:50:40;;;;;;;10.82;4.90;;;3.60;99.90;;;;;;5030174;28;20112;-72
2023/12/01 12:53:06;;;;;;;12.47;6.43;;;3.70;99.90;;;;;;5025740;28;20036;-72
2023/12/01 12:55:32;;;;;;;10.48;6.03;;;3.70;99.90;;;;;;5017629;28;20037;-72